Time;durP1;ratioP1;P1;durP2;ratioP2;P2;SDS_P1;SDS_P2;PMS_P1;PMS_P2;Temp;Humidity;BMP_temperature;BMP_pressure;BME280_temperature;BME280_humidity;BME280_pressure;Samples;Min_cycle;Max_cycle;Signal;HPM_P1;HPM_P2
2023/12/17 00:00:04;;;;;;;32.67;18.38;;;51.70;2227.20;;;;;;5075890;28;20107;-62
2023/12/17 00:02:30;;;;;;;73.30;39.50;;;51.60;2227.20;;;;;;5072626;28;20472;-63
2023/12/17 00:04:55;;;;;;;35.92;18.90;;;51.50;2227.20;;;;;;5084501;28;20071;-63
2023/12/17 00:07:21;;;;;;;37.75;20.70;;;51.60;2227.20;;;;;;5072787;28;20405;-62
2023/12/17 00:09:47;;;;;;;34.20;18.10;;;51.70;2227.20;;;;;;5077905;28;20436;-62
2023/12/17 00:12:13;;;;;;;28.67;16.80;;;51.70;2227.20;;;;;;5080128;28;20069;-63
2023/12/17 00:14:41;;;;;;;30.95;16.85;;;51.70;2227.20;;;;;;5091219;28;20386;-62
2023/12/17 00:17:07;;;;;;;34.22;19.10;;;51.60;2227.20;;;;;;5092560;28;20434;-61
2023/12/17 00:19:33;;;;;;;37.33;19.73;;;51.40;2227.20;;;;;;5091421;28;20048;-63
2023/12/17 00:21:59;;;;;;;56.50;28.80;;;51.30;2227.20;;;;;;5092653;28;20022;-62
2023/12/17 00:24:24;;;;;;;63.55;37.53;;;51.20;2227.20;;;;;;5086459;28;20025;-63
2023/12/17 00:26:52;;;;;;;52.65;30.65;;;26.50;2201.60;;;;;;5084427;28;20486;-63
2023/12/17 00:29:18;;;;;;;46.58;26.33;;;51.20;2227.20;;;;;;5091926;28;20043;-63
2023/12/17 00:31:43;;;;;;;49.80;29.40;;;26.50;2201.60;;;;;;5075312;28;20029;-63
2023/12/17 00:34:09;;;;;;;49.17;27.05;;;26.50;2201.60;;;;;;5077699;28;20025;-62
2023/12/17 00:36:35;;;;;;;51.00;26.83;;;51.20;2227.20;;;;;;5072320;28;20024;-63
2023/12/17 00:39:01;;;;;;;48.35;26.92;;;26.50;2201.60;;;;;;5090520;28;20525;-64
2023/12/17 00:41:26;;;;;;;51.58;28.27;;;26.50;2201.60;;;;;;5079871;28;20103;-63
2023/12/17 00:43:52;;;;;;;53.08;29.83;;;26.40;2201.60;;;;;;5071487;28;20074;-64
2023/12/17 00:46:18;;;;;;;65.43;36.05;;;26.30;2201.60;;;;;;5084267;28;20089;-63
2023/12/17 00:48:44;;;;;;;69.43;38.65;;;26.20;2201.60;;;;;;5078122;28;20550;-63
2023/12/17 00:51:11;;;;;;;39.67;24.25;;;26.10;2201.60;;;;;;5080140;28;20029;-63
2023/12/17 00:53:37;;;;;;;44.45;24.80;;;26.10;2201.60;;;;;;5071644;28;20074;-63
2023/12/17 00:56:03;;;;;;;38.40;21.27;;;26.10;2201.60;;;;;;5084085;28;20027;-64
2023/12/17 00:58:29;;;;;;;32.85;18.75;;;26.00;2201.60;;;;;;5091640;28;20020;-63
2023/12/17 01:00:54;;;;;;;25.77;15.93;;;26.00;2201.60;;;;;;5090271;28;20032;-63
2023/12/17 01:03:20;;;;;;;27.00;15.10;;;26.00;2201.60;;;;;;5084609;28;20035;-64
2023/12/17 01:05:46;;;;;;;31.92;18.20;;;26.10;2201.60;;;;;;5064194;28;20117;-63
2023/12/17 01:08:11;;;;;;;30.02;18.58;;;26.00;2201.60;;;;;;5066024;28;20048;-63
2023/12/17 01:10:37;;;;;;;30.48;17.08;;;25.90;2201.60;;;;;;5078916;28;20036;-63
2023/12/17 01:13:03;;;;;;;29.83;17.73;;;25.80;2201.60;;;;;;5076758;28;20020;-63
2023/12/17 01:15:29;;;;;;;33.72;19.98;;;25.80;2201.60;;;;;;5079096;28;20040;-63
2023/12/17 01:17:54;;;;;;;32.70;18.08;;;25.70;2201.60;;;;;;5070993;28;20021;-63
2023/12/17 01:20:20;;;;;;;36.72;20.17;;;25.70;2201.60;;;;;;5071081;28;20029;-63
2023/12/17 01:22:46;;;;;;;40.85;21.83;;;25.70;2201.60;;;;;;5076382;28;20093;-62
2023/12/17 01:25:12;;;;;;;33.08;20.02;;;25.70;2201.60;;;;;;5078534;28;20020;-63
2023/12/17 01:27:37;;;;;;;38.67;22.35;;;25.60;2201.60;;;;;;5071124;28;20028;-64
2023/12/17 01:30:03;;;;;;;42.50;25.20;;;25.60;2201.60;;;;;;5070811;28;20043;-63
2023/12/17 01:32:29;;;;;;;38.13;20.27;;;0.90;2201.60;;;;;;5071229;28;20020;-63
2023/12/17 01:34:55;;;;;;;35.53;22.15;;;0.90;2201.60;;;;;;5072168;28;20052;-63
2023/12/17 01:37:21;;;;;;;30.45;21.17;;;0.90;2201.60;;;;;;5077274;28;20368;-64
2023/12/17 01:39:46;;;;;;;32.35;18.80;;;25.60;2201.60;;;;;;5081942;28;20417;-63
2023/12/17 01:42:12;;;;;;;29.77;18.17;;;25.60;2201.60;;;;;;5086850;28;20351;-63
2023/12/17 01:44:38;;;;;;;43.55;24.27;;;25.60;2201.60;;;;;;5070718;28;20044;-63
2023/12/17 01:47:05;;;;;;;35.92;20.98;;;25.60;2201.60;;;;;;5084024;28;20111;-63
2023/12/17 01:49:31;;;;;;;28.73;18.85;;;25.60;2201.60;;;;;;5081359;28;20040;-62
2023/12/17 01:51:57;;;;;;;36.35;19.08;;;25.60;2201.60;;;;;;5091161;28;20020;-62
2023/12/17 01:54:22;;;;;;;33.80;19.25;;;25.60;2201.60;;;;;;5090944;28;20032;-62
2023/12/17 01:56:48;;;;;;;28.58;16.95;;;25.70;2201.60;;;;;;5086102;28;20435;-62
2023/12/17 01:59:14;;;;;;;30.67;17.15;;;25.80;2201.60;;;;;;5081686;28;20054;-62
2023/12/17 02:01:43;;;;;;;24.35;15.30;;;25.90;2201.60;;;;;;5072144;28;20502;-62
2023/12/17 02:04:10;;;;;;;30.98;16.95;;;25.80;2201.60;;;;;;5082135;28;20545;-62
2023/12/17 02:06:37;;;;;;;32.55;15.40;;;25.90;2201.60;;;;;;5068140;28;20023;-62
2023/12/17 02:09:03;;;;;;;25.23;14.82;;;25.90;2201.60;;;;;;5082217;28;20491;-63
2023/12/17 02:11:29;;;;;;;26.02;14.93;;;25.90;2201.60;;;;;;5083636;28;20104;-62
2023/12/17 02:13:54;;;;;;;34.95;18.13;;;25.80;2201.60;;;;;;5082445;28;20153;-62
2023/12/17 02:16:20;;;;;;;24.48;13.32;;;25.90;2201.60;;;;;;5090513;28;20076;-62
2023/12/17 02:18:46;;;;;;;26.95;15.50;;;26.00;2201.60;;;;;;5078437;28;20052;-62
2023/12/17 02:21:11;;;;;;;23.60;13.15;;;26.10;2201.60;;;;;;5083168;28;20452;-62
2023/12/17 02:23:37;;;;;;;25.13;14.77;;;26.20;2201.60;;;;;;5070223;28;20113;-62
2023/12/17 02:26:03;;;;;;;34.00;21.98;;;26.20;2201.60;;;;;;5069506;28;20032;-63
2023/12/17 02:28:30;;;;;;;30.20;18.55;;;26.20;2201.60;;;;;;5081906;28;20035;-62
2023/12/17 02:30:56;;;;;;;36.40;19.88;;;26.30;2201.60;;;;;;5076241;28;20064;-62
2023/12/17 02:33:21;;;;;;;34.03;18.92;;;26.30;2201.60;;;;;;5078276;28;20025;-63
2023/12/17 02:35:47;;;;;;;26.38;16.42;;;26.30;2201.60;;;;;;5084753;28;20055;-61
2023/12/17 02:38:13;;;;;;;47.13;25.90;;;26.20;2201.60;;;;;;5086318;28;20560;-62
2023/12/17 02:40:39;;;;;;;32.58;18.75;;;26.30;2201.60;;;;;;5088398;28;20027;-63
2023/12/17 02:43:05;;;;;;;39.17;21.58;;;26.30;2201.60;;;;;;5067559;28;20029;-63
2023/12/17 02:45:31;;;;;;;28.80;18.00;;;26.20;2201.60;;;;;;5069624;28;20028;-62
2023/12/17 02:47:57;;;;;;;51.05;26.73;;;26.20;2201.60;;;;;;5090079;28;20050;-62
2023/12/17 02:50:22;;;;;;;29.77;19.23;;;26.20;2201.60;;;;;;5073776;28;20512;-61
2023/12/17 02:52:48;;;;;;;31.55;17.25;;;26.30;2201.60;;;;;;5078554;28;20020;-62
2023/12/17 02:55:14;;;;;;;22.25;13.88;;;26.20;2201.60;;;;;;5075974;28;20078;-61
2023/12/17 02:57:40;;;;;;;25.48;15.45;;;26.20;2201.60;;;;;;5090035;28;20632;-62
2023/12/17 03:00:07;;;;;;;22.45;14.35;;;26.20;2201.60;;;;;;5076096;28;20482;-62
2023/12/17 03:02:33;;;;;;;22.83;13.70;;;26.10;2201.60;;;;;;5080323;28;20052;-62
2023/12/17 03:04:59;;;;;;;25.85;13.48;;;26.10;2201.60;;;;;;5082731;28;20075;-62
2023/12/17 03:07:25;;;;;;;24.20;13.23;;;26.00;2201.60;;;;;;5069336;28;20013;-62
2023/12/17 03:09:54;;;;;;;22.38;13.30;;;25.90;2201.60;;;;;;5071679;28;20040;-62
2023/12/17 03:12:20;;;;;;;26.13;14.45;;;25.90;2201.60;;;;;;5089628;28;20023;-62
2023/12/17 03:14:46;;;;;;;27.20;15.57;;;25.90;2201.60;;;;;;5072140;28;20033;-63
2023/12/17 03:17:11;;;;;;;36.72;20.50;;;25.80;2201.60;;;;;;5067683;28;20017;-62
2023/12/17 03:19:37;;;;;;;41.15;22.33;;;25.80;2201.60;;;;;;5069542;28;20056;-62
2023/12/17 03:22:03;;;;;;;46.40;24.35;;;25.60;2201.60;;;;;;5077232;28;20452;-61
2023/12/17 03:24:28;;;;;;;39.75;19.25;;;0.90;2201.60;;;;;;5086490;28;20111;-62
2023/12/17 03:26:54;;;;;;;34.40;19.55;;;0.80;2201.60;;;;;;5078011;28;20035;-62
2023/12/17 03:29:20;;;;;;;25.60;14.95;;;0.90;2201.60;;;;;;5089357;28;20093;-62
2023/12/17 03:31:46;;;;;;;25.98;14.05;;;0.80;2201.60;;;;;;5076652;28;20029;-62
2023/12/17 03:34:12;;;;;;;23.92;13.90;;;0.60;2201.60;;;;;;5068932;28;20442;-62
2023/12/17 03:36:38;;;;;;;25.20;13.88;;;0.60;2201.60;;;;;;5081936;28;20063;-60
2023/12/17 03:39:04;;;;;;;27.42;15.23;;;0.60;2201.60;;;;;;5075978;28;20056;-61
2023/12/17 03:41:30;;;;;;;27.95;14.88;;;0.50;2201.60;;;;;;5086786;28;20020;-63
2023/12/17 03:43:57;;;;;;;25.80;13.57;;;0.40;2201.60;;;;;;5077817;28;20431;-64
2023/12/17 03:46:24;;;;;;;24.73;15.20;;;0.50;2201.60;;;;;;5068826;28;20478;-63
2023/12/17 03:48:50;;;;;;;30.27;16.27;;;0.50;2201.60;;;;;;5064515;28;20082;-63
2023/12/17 03:51:17;;;;;;;24.02;13.27;;;0.50;2201.60;;;;;;5059560;28;20024;-63
2023/12/17 03:53:43;;;;;;;24.95;14.00;;;0.40;2201.60;;;;;;5081133;28;20084;-64
2023/12/17 03:56:09;;;;;;;25.35;15.25;;;0.40;2201.60;;;;;;5084135;28;20466;-62
2023/12/17 03:58:36;;;;;;;24.63;14.02;;;0.40;2201.60;;;;;;5080655;28;20452;-64
2023/12/17 04:01:03;;;;;;;23.10;12.85;;;0.40;2201.60;;;;;;5070492;28;20017;-64
2023/12/17 04:03:29;;;;;;;23.77;12.93;;;0.40;2201.60;;;;;;5069015;28;20028;-64
2023/12/17 04:05:57;;;;;;;24.25;14.13;;;0.40;2201.60;;;;;;5073724;28;20021;-65
2023/12/17 04:08:23;;;;;;;23.50;13.43;;;0.40;2201.60;;;;;;5089398;28;20024;-64
2023/12/17 04:10:49;;;;;;;21.08;11.27;;;0.40;2201.60;;;;;;5069959;28;20035;-63
2023/12/17 04:13:15;;;;;;;21.58;12.45;;;0.40;2201.60;;;;;;5069214;28;20029;-63
2023/12/17 04:15:40;;;;;;;23.42;14.25;;;0.40;2201.60;;;;;;5074333;28;20073;-64
2023/12/17 04:18:06;;;;;;;20.50;11.90;;;0.60;2201.60;;;;;;5089477;28;20017;-64
2023/12/17 04:20:32;;;;;;;20.52;11.88;;;0.50;2201.60;;;;;;5083219;28;20027;-65
2023/12/17 04:22:58;;;;;;;15.10;10.00;;;0.40;2201.60;;;;;;5062954;28;20075;-64
2023/12/17 04:25:25;;;;;;;21.60;11.10;;;0.40;2201.60;;;;;;5074059;28;20095;-64
2023/12/17 04:27:51;;;;;;;18.27;11.55;;;0.30;2201.60;;;;;;5075149;28;20482;-64
2023/12/17 04:30:17;;;;;;;21.20;13.45;;;0.40;2201.60;;;;;;5062703;28;20033;-64
2023/12/17 04:32:42;;;;;;;21.65;12.50;;;0.30;2201.60;;;;;;5068492;28;20062;-65
2023/12/17 04:35:08;;;;;;;17.58;11.23;;;0.40;2201.60;;;;;;5083578;28;20035;-63
2023/12/17 04:37:34;;;;;;;16.60;9.65;;;0.40;2201.60;;;;;;5092423;28;20386;-64
2023/12/17 04:40:01;;;;;;;22.20;11.30;;;0.40;2201.60;;;;;;5092784;28;20024;-63
2023/12/17 04:42:28;;;;;;;18.58;11.13;;;0.90;2201.60;;;;;;5059166;28;20048;-64
2023/12/17 04:44:54;;;;;;;17.65;10.57;;;0.50;2201.60;;;;;;5085775;28;20043;-64
2023/12/17 04:47:20;;;;;;;17.23;10.00;;;0.50;2201.60;;;;;;5066002;28;20354;-63
2023/12/17 04:49:46;;;;;;;18.15;11.05;;;0.50;2201.60;;;;;;5091665;28;20044;-64
2023/12/17 04:52:12;;;;;;;19.67;11.20;;;0.60;2201.60;;;;;;5079006;28;20020;-65
2023/12/17 04:54:38;;;;;;;19.08;11.57;;;0.70;2201.60;;;;;;5092238;28;20035;-65
2023/12/17 04:57:04;;;;;;;18.05;11.65;;;0.80;2201.60;;;;;;5068757;28;20036;-64
2023/12/17 04:59:29;;;;;;;17.63;11.18;;;0.80;2201.60;;;;;;5065750;28;20025;-65
2023/12/17 05:01:55;;;;;;;17.58;10.45;;;0.90;2201.60;;;;;;5072293;28;20028;-65
2023/12/17 05:04:21;;;;;;;16.95;10.02;;;0.90;2201.60;;;;;;5071624;28;20115;-64
2023/12/17 05:06:47;;;;;;;20.90;11.73;;;0.90;2201.60;;;;;;5072046;28;20082;-65
2023/12/17 05:09:13;;;;;;;20.75;13.52;;;0.80;2201.60;;;;;;5084799;28;20032;-65
2023/12/17 05:11:39;;;;;;;21.67;12.15;;;0.80;2201.60;;;;;;5071700;28;20016;-65
2023/12/17 05:14:04;;;;;;;27.75;15.18;;;0.80;2201.60;;;;;;5084852;28;20036;-65
2023/12/17 05:16:30;;;;;;;25.00;14.55;;;0.90;2201.60;;;;;;5071814;28;20467;-64
2023/12/17 05:18:56;;;;;;;51.08;24.45;;;0.80;2201.60;;;;;;5071419;28;20474;-65
2023/12/17 05:21:22;;;;;;;49.63;24.17;;;0.80;2201.60;;;;;;5078525;28;20035;-64
2023/12/17 05:23:48;;;;;;;27.85;13.73;;;0.80;2201.60;;;;;;5078117;28;20069;-65
2023/12/17 05:26:14;;;;;;;23.42;13.10;;;0.80;2201.60;;;;;;5091548;28;20032;-65
2023/12/17 05:28:41;;;;;;;23.70;12.48;;;0.80;2201.60;;;;;;5091801;28;20027;-65
2023/12/17 05:31:07;;;;;;;32.15;19.23;;;0.70;2201.60;;;;;;5079962;28;20386;-66
2023/12/17 05:33:33;;;;;;;31.67;16.45;;;0.80;2201.60;;;;;;5064379;28;20032;-65
2023/12/17 05:35:59;;;;;;;20.20;12.15;;;0.80;2201.60;;;;;;5084498;28;20039;-65
2023/12/17 05:38:28;;;;;;;28.98;15.98;;;0.80;2201.60;;;;;;5084416;28;20024;-65
2023/12/17 05:40:54;;;;;;;22.88;14.80;;;0.80;2201.60;;;;;;5058073;28;20111;-64
2023/12/17 05:43:20;;;;;;;21.95;12.73;;;25.80;2201.60;;;;;;5071024;28;20040;-63
2023/12/17 05:45:46;;;;;;;18.88;12.63;;;0.80;2201.60;;;;;;5057590;28;20136;-65
2023/12/17 05:48:14;;;;;;;20.63;11.75;;;0.70;2201.60;;;;;;5070850;28;20024;-64
2023/12/17 05:50:40;;;;;;;18.55;11.88;;;0.70;2201.60;;;;;;5065304;28;20040;-65
2023/12/17 05:53:06;;;;;;;28.98;15.32;;;0.70;2201.60;;;;;;5090591;28;20028;-64
2023/12/17 05:55:32;;;;;;;22.50;12.88;;;0.80;2201.60;;;;;;5077996;28;20030;-65
2023/12/17 05:57:57;;;;;;;23.25;13.65;;;0.80;2201.60;;;;;;5090912;28;20025;-64
2023/12/17 06:00:23;;;;;;;22.10;13.32;;;0.80;2201.60;;;;;;5090998;28;20484;-65
2023/12/17 06:02:49;;;;;;;28.77;14.32;;;0.90;2201.60;;;;;;5072496;28;20480;-64
2023/12/17 06:05:15;;;;;;;22.85;14.20;;;0.80;2201.60;;;;;;5067558;28;20472;-65
2023/12/17 06:07:40;;;;;;;24.23;13.52;;;0.90;2201.60;;;;;;5070247;28;20708;-64
2023/12/17 06:10:07;;;;;;;20.67;12.27;;;0.90;2201.60;;;;;;5077384;28;20118;-64
2023/12/17 06:12:33;;;;;;;21.17;11.77;;;0.90;2201.60;;;;;;5076756;28;20073;-64
2023/12/17 06:14:59;;;;;;;19.70;11.80;;;0.90;2201.60;;;;;;5084134;28;20024;-64
2023/12/17 06:17:24;;;;;;;16.80;11.07;;;0.80;2201.60;;;;;;5069938;28;20386;-64
2023/12/17 06:19:50;;;;;;;22.88;13.15;;;0.90;2201.60;;;;;;5070444;28;20032;-64
2023/12/17 06:22:16;;;;;;;20.38;12.23;;;0.80;2201.60;;;;;;5084100;28;20020;-65
2023/12/17 06:24:42;;;;;;;139.80;72.43;;;0.80;2201.60;;;;;;5070003;28;20474;-65
2023/12/17 06:27:15;;;;;;;140.45;77.43;;;0.80;2201.60;;;;;;5084520;28;20028;-64
2023/12/17 06:29:41;;;;;;;87.43;44.80;;;0.90;2201.60;;;;;;5090120;28;20055;-67
2023/12/17 06:32:07;;;;;;;87.38;48.90;;;25.70;2201.60;;;;;;5074744;28;20056;-65
2023/12/17 06:34:34;;;;;;;107.32;55.88;;;25.70;2201.60;;;;;;5069586;28;20031;-65
2023/12/17 06:37:00;;;;;;;97.07;51.05;;;25.70;2201.60;;;;;;5065695;28;20029;-65
2023/12/17 06:39:26;;;;;;;93.72;50.72;;;25.70;2201.60;;;;;;5076603;28;20017;-64
2023/12/17 06:41:52;;;;;;;68.70;38.35;;;25.80;2201.60;;;;;;5083403;28;20027;-65
2023/12/17 06:44:18;;;;;;;63.70;35.90;;;25.80;2201.60;;;;;;5070153;28;20025;-64
2023/12/17 06:46:44;;;;;;;59.25;26.08;;;25.80;2201.60;;;;;;5069693;28;20036;-64
2023/12/17 06:49:10;;;;;;;37.45;21.83;;;25.80;2201.60;;;;;;5069676;28;20040;-65
2023/12/17 06:51:42;;;;;;;136.75;69.75;;;25.90;2201.60;;;;;;5070936;28;20025;-64
2023/12/17 06:54:08;;;;;;;144.67;82.63;;;25.90;2201.60;;;;;;5090276;28;20024;-64
2023/12/17 06:56:34;;;;;;;59.00;31.80;;;25.90;2201.60;;;;;;5073403;28;20249;-64
2023/12/17 06:59:01;;;;;;;73.50;42.05;;;26.00;2201.60;;;;;;5078349;28;20224;-65
2023/12/17 07:01:27;;;;;;;64.03;35.28;;;26.10;2201.60;;;;;;5087302;28;20024;-64
2023/12/17 07:03:53;;;;;;;103.85;60.35;;;26.10;2201.60;;;;;;5069402;28;20047;-65
2023/12/17 07:06:18;;;;;;;160.93;95.20;;;26.20;2201.60;;;;;;5069500;28;20031;-65
2023/12/17 07:08:44;;;;;;;127.32;74.80;;;26.20;2201.60;;;;;;5069391;28;20028;-65
2023/12/17 07:11:13;;;;;;;93.55;59.10;;;26.00;2201.60;;;;;;5066671;28;20021;-65
2023/12/17 07:13:38;;;;;;;87.00;55.10;;;26.00;2201.60;;;;;;5081342;28;20035;-65
2023/12/17 07:16:04;;;;;;;45.95;29.00;;;26.00;2201.60;;;;;;5089542;28;20028;-65
2023/12/17 07:18:30;;;;;;;40.47;28.25;;;26.30;2201.60;;;;;;5089681;28;20862;-65
2023/12/17 07:20:56;;;;;;;75.13;45.88;;;26.50;2201.60;;;;;;5086458;28;20027;-65
2023/12/17 07:23:25;;;;;;;142.20;86.75;;;26.50;2201.60;;;;;;5069657;28;20108;-65
2023/12/17 07:25:51;;;;;;;124.25;79.50;;;51.30;2227.20;;;;;;5082271;28;20514;-62
2023/12/17 07:28:17;;;;;;;135.95;81.25;;;51.30;2227.20;;;;;;5079611;28;20066;-64
2023/12/17 07:30:42;;;;;;;104.60;64.57;;;51.40;2227.20;;;;;;5062303;28;20036;-64
2023/12/17 07:33:08;;;;;;;55.03;32.17;;;51.40;2227.20;;;;;;5079530;28;20020;-65
2023/12/17 07:35:34;;;;;;;37.33;23.70;;;51.30;2227.20;;;;;;5069171;28;20031;-64
2023/12/17 07:38:00;;;;;;;36.88;24.05;;;51.50;2227.20;;;;;;5079626;28;20082;-64
2023/12/17 07:40:26;;;;;;;41.85;27.48;;;51.90;2227.20;;;;;;5072600;28;20052;-64
2023/12/17 07:42:52;;;;;;;29.25;18.98;;;51.50;2227.20;;;;;;5069379;28;20059;-66
2023/12/17 07:45:18;;;;;;;29.73;17.30;;;51.50;2227.20;;;;;;5064859;28;20056;-64
2023/12/17 07:47:44;;;;;;;25.85;14.35;;;51.60;2227.20;;;;;;5079449;28;20040;-66
2023/12/17 07:50:10;;;;;;;26.77;16.60;;;51.60;2227.20;;;;;;5075626;28;20067;-66
2023/12/17 07:52:36;;;;;;;34.03;21.92;;;51.70;2227.20;;;;;;5078980;28;20048;-64
2023/12/17 07:55:02;;;;;;;57.03;29.65;;;51.70;2227.20;;;;;;5069136;28;20063;-65
2023/12/17 07:57:28;;;;;;;90.85;51.13;;;51.50;2227.20;;;;;;5069483;28;20534;-65
2023/12/17 07:59:54;;;;;;;64.53;35.65;;;51.60;2227.20;;;;;;5069136;28;20025;-65
2023/12/17 08:02:20;;;;;;;46.10;26.58;;;51.60;2227.20;;;;;;5069349;28;20063;-64
2023/12/17 08:04:46;;;;;;;27.17;16.27;;;51.70;2227.20;;;;;;5085797;28;20087;-63
2023/12/17 08:07:12;;;;;;;24.80;14.73;;;51.70;2227.20;;;;;;5078527;28;20067;-63
2023/12/17 08:09:39;;;;;;;23.65;14.27;;;51.70;2227.20;;;;;;5088804;28;20463;-61
2023/12/17 08:12:05;;;;;;;21.17;12.00;;;51.80;2227.20;;;;;;5082096;28;20028;-62
2023/12/17 08:14:31;;;;;;;22.45;11.77;;;51.90;2227.20;;;;;;5090671;28;20506;-62
2023/12/17 08:16:58;;;;;;;24.60;14.98;;;52.10;2227.20;;;;;;5086131;28;20036;-62
2023/12/17 08:19:24;;;;;;;45.80;29.92;;;76.80;2227.20;;;;;;5058814;28;20012;-62
2023/12/17 08:21:50;;;;;;;25.60;15.57;;;77.40;2227.20;;;;;;5084177;28;20024;-62
2023/12/17 08:24:16;;;;;;;54.03;31.98;;;103.00;2227.20;;;;;;5075017;28;20047;-62
2023/12/17 08:26:41;;;;;;;69.95;40.03;;;103.10;2227.20;;;;;;5083447;28;20093;-62
2023/12/17 08:29:07;;;;;;;210.15;129.50;;;103.00;2227.20;;;;;;5088734;28;20123;-62
2023/12/17 08:31:33;;;;;;;151.35;88.75;;;102.80;2227.20;;;;;;5082721;28;20048;-62
2023/12/17 08:34:01;;;;;;;184.48;115.40;;;102.80;2227.20;;;;;;5077682;28;20504;-62
2023/12/17 08:36:28;;;;;;;311.38;182.60;;;102.60;2227.20;;;;;;5077482;28;20060;-62
2023/12/17 08:38:54;;;;;;;204.10;120.82;;;102.80;2227.20;;;;;;5072308;28;20036;-62
2023/12/17 08:41:20;;;;;;;178.07;105.25;;;128.60;2252.80;;;;;;5086624;28;20024;-62
2023/12/17 08:43:46;;;;;;;141.40;98.00;;;179.50;2252.80;;;;;;5074710;28;20039;-62
2023/12/17 08:46:12;;;;;;;130.70;94.35;;;205.30;2252.80;;;;;;5075555;28;20517;-66
2023/12/17 08:48:38;;;;;;;130.60;100.53;;;230.80;2252.80;;;;;;5092822;28;20036;-62
2023/12/17 08:51:04;;;;;;;157.90;115.35;;;231.20;2252.80;;;;;;5092308;28;20123;-63
2023/12/17 08:53:30;;;;;;;186.45;131.98;;;282.30;2124.80;;;;;;5092369;28;20016;-62
2023/12/17 08:55:56;;;;;;;169.52;126.45;;;307.20;2073.60;;;;;;5076560;28;20032;-62
2023/12/17 08:58:22;;;;;;;237.85;190.55;;;307.90;2048.00;;;;;;5089511;28;20020;-63
2023/12/17 09:00:48;;;;;;;239.32;195.80;;;333.60;1945.60;;;;;;5094197;28;20028;-63
2023/12/17 09:03:18;;;;;;;252.25;206.52;;;358.60;1894.40;;;;;;5082373;28;20021;-63
2023/12/17 09:05:44;;;;;;;199.70;172.82;;;333.60;1920.00;;;;;;5057038;28;20037;-61
2023/12/17 09:08:10;;;;;;;175.10;155.75;;;333.60;1945.60;;;;;;5072220;28;20032;-63
2023/12/17 09:10:36;;;;;;;156.55;139.52;;;333.40;1920.00;;;;;;5074780;28;20035;-62
2023/12/17 09:13:01;;;;;;;148.23;127.72;;;333.60;1920.00;;;;;;5081649;28;20424;-63
2023/12/17 09:15:27;;;;;;;152.13;128.07;;;358.60;1843.20;;;;;;5088608;28;20600;-62
2023/12/17 09:17:53;;;;;;;167.43;129.95;;;333.20;1920.00;;;;;;5081671;28;20033;-63
2023/12/17 09:20:19;;;;;;;149.05;122.55;;;332.90;1894.40;;;;;;5077778;28;20020;-62
2023/12/17 09:22:45;;;;;;;168.93;132.48;;;307.20;1971.20;;;;;;5071272;28;20486;-62
2023/12/17 09:25:11;;;;;;;126.22;94.03;;;281.70;2022.40;;;;;;5071673;28;20040;-62
2023/12/17 09:27:37;;;;;;;109.25;82.35;;;256.30;2073.60;;;;;;5076099;28;20458;-63
2023/12/17 09:30:03;;;;;;;100.05;75.38;;;256.50;2073.60;;;;;;5079927;28;20062;-62
2023/12/17 09:32:30;;;;;;;131.52;98.43;;;231.30;2099.20;;;;;;5071386;28;20020;-60
2023/12/17 09:34:55;;;;;;;110.60;78.57;;;230.40;2150.40;;;;;;5082498;28;20378;-63
2023/12/17 09:37:21;;;;;;;94.15;70.13;;;205.10;2252.80;;;;;;5091656;28;20023;-63
2023/12/17 09:39:47;;;;;;;87.93;59.40;;;205.20;2252.80;;;;;;5080064;28;20111;-62
2023/12/17 09:42:13;;;;;;;87.80;61.22;;;180.10;2252.80;;;;;;5067696;28;20037;-62
2023/12/17 09:44:40;;;;;;;116.28;80.70;;;179.50;2252.80;;;;;;5084929;28;20032;-61
2023/12/17 09:47:06;;;;;;;98.55;67.60;;;179.20;2252.80;;;;;;5088434;28;20101;-61
2023/12/17 09:49:32;;;;;;;92.43;66.13;;;154.50;2252.80;;;;;;5079176;28;20036;-62
2023/12/17 09:52:07;;;;;;;105.05;70.10;;;154.50;2252.80;;;;;;5070707;28;20077;-61
2023/12/17 09:54:33;;;;;;;96.22;66.32;;;154.40;2252.80;;;;;;5070885;28;20497;-62
2023/12/17 09:57:01;;;;;;;133.90;91.93;;;154.50;2252.80;;;;;;5059903;28;20025;-61
2023/12/17 09:59:27;;;;;;;143.85;91.20;;;154.50;2252.80;;;;;;5056044;28;20028;-60
2023/12/17 10:01:53;;;;;;;227.95;119.63;;;154.40;2252.80;;;;;;5067735;28;20020;-62
2023/12/17 10:04:24;;;;;;;109.13;73.82;;;154.30;2252.80;;;;;;5068684;28;20128;-61
2023/12/17 10:06:50;;;;;;;121.65;73.30;;;154.40;2252.80;;;;;;5070099;28;20029;-62
2023/12/17 10:09:16;;;;;;;122.90;80.40;;;154.50;2252.80;;;;;;5061645;28;20135;-61
2023/12/17 10:11:42;;;;;;;101.82;60.13;;;179.20;2252.80;;;;;;5059773;28;20506;-62
2023/12/17 10:14:21;;;;;;;123.22;82.60;;;154.30;2252.80;;;;;;5059747;28;20032;-61
2023/12/17 10:16:48;;;;;;;104.43;70.05;;;154.30;2252.80;;;;;;5055764;28;20043;-62
2023/12/17 10:19:13;;;;;;;107.65;64.68;;;154.40;2252.80;;;;;;5053248;28;20107;-60
2023/12/17 10:21:40;;;;;;;102.50;54.97;;;154.50;2252.80;;;;;;5068681;28;20577;-61
2023/12/17 10:24:06;;;;;;;72.05;42.80;;;154.40;2252.80;;;;;;5054879;28;20044;-61
2023/12/17 10:26:49;;;;;;;57.78;29.63;;;154.30;2252.80;;;;;;5070554;28;20103;-62
2023/12/17 10:29:18;;;;;;;44.28;30.45;;;154.30;2252.80;;;;;;5062675;28;20021;-61
2023/12/17 10:31:44;;;;;;;35.45;21.90;;;154.50;2252.80;;;;;;5058283;28;20029;-62
2023/12/17 10:34:30;;;;;;;55.60;29.80;;;179.20;2252.80;;;;;;5059482;28;20139;-62
2023/12/17 10:36:56;;;;;;;32.72;21.88;;;179.20;2252.80;;;;;;5059227;28;20040;-61
2023/12/17 10:39:22;;;;;;;34.35;23.40;;;154.50;2252.80;;;;;;5070112;28;20021;-61
2023/12/17 10:41:50;;;;;;;29.15;17.83;;;179.30;2252.80;;;;;;5060847;28;20032;-62
2023/12/17 10:44:19;;;;;;;23.77;15.70;;;179.20;2252.80;;;;;;5089917;28;20036;-62
2023/12/17 10:46:45;;;;;;;18.85;12.48;;;179.30;2252.80;;;;;;5076230;28;20141;-62
2023/12/17 10:49:12;;;;;;;12.05;8.65;;;154.50;2252.80;;;;;;5080223;28;20024;-62
2023/12/17 10:51:42;;;;;;;22.15;13.50;;;154.50;2252.80;;;;;;5072504;28;20039;-62
2023/12/17 10:54:09;;;;;;;14.25;10.55;;;154.40;2252.80;;;;;;5080001;28;20020;-62
2023/12/17 10:56:56;;;;;;;21.52;13.10;;;179.20;2252.80;;;;;;5072612;28;20026;-61
2023/12/17 10:59:33;;;;;;;23.88;15.27;;;179.20;2252.80;;;;;;5076578;28;20355;-62
2023/12/17 11:02:01;;;;;;;31.67;20.70;;;179.30;2252.80;;;;;;5069817;28;20107;-61
2023/12/17 11:04:27;;;;;;;33.28;19.23;;;179.20;2252.80;;;;;;5070757;28;20363;-62
2023/12/17 11:06:53;;;;;;;48.35;29.50;;;179.40;2252.80;;;;;;5081271;28;20029;-61
2023/12/17 11:09:19;;;;;;;26.73;17.05;;;179.50;2252.80;;;;;;5069461;28;20071;-61
2023/12/17 11:11:49;;;;;;;26.63;17.00;;;179.50;2252.80;;;;;;5069436;28;20060;-61
2023/12/17 11:14:16;;;;;;;31.95;20.38;;;179.40;2252.80;;;;;;5064893;28;20119;-63
2023/12/17 11:16:41;;;;;;;34.05;20.50;;;179.50;2252.80;;;;;;5058020;28;20119;-62
2023/12/17 11:19:08;;;;;;;31.48;20.73;;;179.40;2252.80;;;;;;5069278;28;20428;-61
2023/12/17 11:21:35;;;;;;;48.35;32.80;;;179.70;2252.80;;;;;;5073570;28;20023;-62
2023/12/17 11:24:01;;;;;;;48.30;29.35;;;179.70;2252.80;;;;;;5090443;28;20448;-61
2023/12/17 11:26:26;;;;;;;45.38;24.38;;;179.60;2252.80;;;;;;5081847;28;21099;-62
2023/12/17 11:28:52;;;;;;;46.70;38.75;;;179.70;2252.80;;;;;;5085279;28;20020;-61
2023/12/17 11:31:19;;;;;;;29.40;19.70;;;179.70;2252.80;;;;;;5081431;28;20070;-62
2023/12/17 11:33:45;;;;;;;30.17;21.40;;;179.60;2252.80;;;;;;5082849;28;20017;-62
2023/12/17 11:36:12;;;;;;;32.72;21.15;;;179.70;2252.80;;;;;;5077540;28;20032;-62
2023/12/17 11:38:38;;;;;;;46.17;28.38;;;179.70;2252.80;;;;;;5075617;28;20031;-61
2023/12/17 11:41:05;;;;;;;38.72;25.45;;;179.70;2252.80;;;;;;5080017;28;20020;-62
2023/12/17 11:43:31;;;;;;;43.53;29.65;;;179.70;2252.80;;;;;;5079778;28;20024;-62
2023/12/17 11:45:57;;;;;;;31.50;22.00;;;180.10;2252.80;;;;;;5084374;28;20028;-62
2023/12/17 11:48:24;;;;;;;40.53;28.92;;;179.80;2252.80;;;;;;5073170;28;20487;-61
2023/12/17 11:50:54;;;;;;;40.88;26.10;;;179.90;2252.80;;;;;;5072886;28;20040;-61
2023/12/17 11:53:22;;;;;;;22.83;16.15;;;179.90;2252.80;;;;;;5076654;28;20077;-61
2023/12/17 11:55:50;;;;;;;28.75;16.67;;;179.90;2252.80;;;;;;5084110;28;20025;-61
2023/12/17 11:58:21;;;;;;;41.00;24.10;;;179.90;2252.80;;;;;;5086132;28;20016;-62
2023/12/17 12:01:06;;;;;;;28.90;16.42;;;179.90;2252.80;;;;;;5075475;28;20020;-60